createdAt,value
2023-04-10T00:00:48.331Z,8.15
2023-04-10T00:03:18.152Z,6.60
2023-04-10T00:05:46.624Z,8.07
2023-04-10T00:08:14.770Z,8.18
2023-04-10T00:10:42.763Z,8.43
2023-04-10T00:13:10.936Z,9.02
2023-04-10T00:15:38.926Z,7.43
2023-04-10T00:18:07.075Z,10.38
2023-04-10T00:20:36.720Z,9.40
2023-04-10T00:23:04.750Z,7.22
2023-04-10T00:25:32.709Z,7.03
2023-04-10T00:28:00.687Z,6.00
2023-04-10T00:30:28.790Z,7.13
2023-04-10T00:32:56.779Z,8.73
2023-04-10T00:35:28.902Z,9.60
2023-04-10T00:38:00.939Z,6.53
2023-04-10T00:40:32.092Z,7.80
2023-04-10T00:43:00.221Z,7.28
2023-04-10T00:45:31.224Z,6.75
2023-04-10T00:48:01.096Z,6.82
2023-04-10T00:50:30.231Z,7.88
2023-04-10T00:53:00.248Z,7.15
2023-04-10T00:55:28.145Z,7.88
2023-04-10T00:57:57.482Z,7.60
2023-04-10T01:00:25.411Z,8.45
2023-04-10T01:02:54.749Z,9.02
2023-04-10T01:05:23.756Z,7.05
2023-04-10T01:08:03.863Z,8.60
2023-04-10T01:10:43.453Z,6.55
2023-04-10T01:13:23.073Z,8.88
2023-04-10T01:15:59.473Z,6.65
2023-04-10T01:18:32.943Z,8.07
2023-04-10T01:21:03.392Z,9.32
2023-04-10T01:23:51.855Z,7.30
2023-04-10T01:26:34.172Z,8.52
2023-04-10T01:29:07.487Z,9.68
2023-04-10T01:31:40.492Z,8.68
2023-04-10T01:34:16.270Z,6.25
2023-04-10T01:36:51.245Z,7.82
2023-04-10T01:39:21.395Z,7.03
2023-04-10T01:41:53.910Z,5.55
2023-04-10T01:44:31.955Z,9.38
2023-04-10T01:47:01.287Z,7.90
2023-04-10T01:49:31.345Z,8.63
2023-04-10T01:52:04.354Z,9.88
2023-04-10T01:54:33.623Z,8.00
2023-04-10T01:57:04.159Z,6.60
2023-04-10T01:59:43.446Z,7.80
2023-04-10T02:02:12.393Z,9.52
2023-04-10T02:04:40.796Z,8.18
2023-04-10T02:07:12.829Z,10.25
2023-04-10T02:09:48.981Z,7.53
2023-04-10T02:12:19.717Z,8.00
2023-04-10T02:14:52.247Z,7.55
2023-04-10T02:17:32.251Z,6.07
2023-04-10T02:20:00.810Z,7.00
2023-04-10T02:22:31.964Z,8.63
2023-04-10T02:25:00.398Z,6.18
2023-04-10T02:27:30.211Z,6.90
2023-04-10T02:30:03.254Z,7.40
2023-04-10T02:32:36.129Z,6.97
2023-04-10T02:35:06.083Z,6.80
2023-04-10T02:37:34.714Z,5.15
2023-04-10T02:40:05.698Z,7.00
2023-04-10T02:42:42.525Z,7.32
2023-04-10T02:45:14.206Z,6.75
2023-04-10T02:47:44.110Z,6.55
2023-04-10T02:50:32.490Z,8.23
2023-04-10T02:53:04.197Z,7.47
2023-04-10T02:55:32.067Z,6.13
2023-04-10T02:58:04.096Z,8.70
2023-04-10T03:00:42.056Z,8.85
2023-04-10T03:03:15.482Z,6.68
2023-04-10T03:05:49.599Z,5.95
2023-04-10T03:08:23.903Z,6.35
2023-04-10T03:10:51.999Z,6.63
2023-04-10T03:13:20.450Z,6.68
2023-04-10T03:15:49.888Z,6.95
2023-04-10T03:18:18.156Z,7.45
2023-04-10T03:20:50.211Z,8.40
2023-04-10T03:23:20.678Z,8.70
2023-04-10T03:25:54.859Z,7.03
2023-04-10T03:28:29.710Z,6.80
2023-04-10T03:30:59.043Z,6.70
2023-04-10T03:33:28.017Z,6.78
2023-04-10T03:35:57.305Z,8.35
2023-04-10T03:38:25.727Z,8.38
2023-04-10T03:40:54.295Z,10.50
2023-04-10T03:43:26.153Z,6.72
2023-04-10T03:45:57.060Z,6.47
2023-04-10T03:48:28.205Z,6.78
2023-04-10T03:50:56.450Z,7.75
2023-04-10T03:53:24.660Z,5.93
2023-04-10T03:55:54.380Z,5.47
2023-04-10T03:58:23.945Z,7.75
2023-04-10T04:00:53.694Z,6.15
2023-04-10T04:03:32.453Z,4.25
2023-04-10T04:06:00.568Z,6.60
2023-04-10T04:09:04.018Z,5.80
2023-04-10T04:11:48.870Z,6.45
2023-04-10T04:14:35.922Z,5.47
2023-04-10T04:17:33.120Z,7.00
2023-04-10T04:20:09.927Z,8.10
2023-04-10T04:22:50.318Z,5.30
2023-04-10T04:25:38.754Z,6.75
2023-04-10T04:28:09.990Z,5.00
2023-04-10T04:30:58.176Z,8.15
2023-04-10T04:33:49.029Z,5.78
2023-04-10T04:36:31.217Z,7.18
2023-04-10T04:38:59.202Z,5.50
2023-04-10T04:41:33.885Z,6.35
2023-04-10T04:44:40.579Z,5.50
2023-04-10T04:47:28.703Z,5.65
2023-04-10T04:50:10.669Z,5.63
2023-04-10T04:53:00.394Z,4.57
2023-04-10T04:55:45.752Z,6.18
2023-04-10T04:58:33.224Z,5.85
2023-04-10T05:01:17.232Z,6.47
2023-04-10T05:04:07.572Z,7.28
2023-04-10T05:06:58.354Z,6.75
2023-04-10T05:09:49.535Z,5.60
2023-04-10T05:12:36.604Z,5.75
2023-04-10T05:15:19.051Z,7.38
2023-04-10T05:18:06.169Z,8.48
2023-04-10T05:20:36.973Z,4.70
2023-04-10T05:23:28.530Z,4.07
2023-04-10T05:26:18.112Z,5.57
2023-04-10T05:28:56.848Z,5.38
2023-04-10T05:31:46.256Z,7.00
2023-04-10T05:34:21.874Z,6.65
2023-04-10T05:37:16.719Z,5.47
2023-04-10T05:40:09.914Z,6.13
2023-04-10T05:42:58.671Z,6.80
2023-04-10T05:45:36.311Z,5.88
2023-04-10T05:48:26.083Z,6.22
2023-04-10T05:51:18.573Z,9.38
2023-04-10T05:54:09.217Z,5.32
2023-04-10T05:56:56.462Z,4.78
2023-04-10T05:59:47.204Z,5.70
2023-04-10T06:02:33.010Z,5.47
2023-04-10T06:05:01.431Z,7.78
2023-04-10T06:07:32.558Z,4.35
2023-04-10T06:10:00.467Z,5.57
2023-04-10T06:12:28.604Z,3.60
2023-04-10T06:14:58.948Z,5.00
2023-04-10T06:17:28.255Z,4.45
2023-04-10T06:19:56.769Z,5.00
2023-04-10T06:22:25.267Z,4.75
2023-04-10T06:24:54.125Z,4.63
2023-04-10T06:27:26.456Z,5.57
2023-04-10T06:29:58.752Z,5.82
2023-04-10T06:32:28.163Z,4.47
2023-04-10T06:34:56.384Z,4.07
2023-04-10T06:37:31.348Z,5.00
2023-04-10T06:40:08.006Z,5.15
2023-04-10T06:42:36.125Z,5.75
2023-04-10T06:45:11.621Z,5.25
2023-04-10T06:47:41.185Z,6.22
2023-04-10T06:50:09.776Z,3.05
2023-04-10T06:52:39.505Z,5.70
2023-04-10T06:55:08.594Z,5.75
2023-04-10T06:57:36.799Z,5.82
2023-04-10T07:00:05.259Z,4.88
2023-04-10T07:02:33.187Z,4.25
2023-04-10T07:05:02.545Z,4.70
2023-04-10T07:07:31.538Z,6.45
2023-04-10T07:09:59.801Z,4.35
2023-04-10T07:12:28.179Z,4.70
2023-04-10T07:14:56.495Z,4.78
2023-04-10T07:17:25.527Z,5.00
2023-04-10T07:19:53.489Z,4.75
2023-04-10T07:22:22.866Z,3.70
2023-04-10T07:24:53.624Z,4.40
2023-04-10T07:27:23.096Z,4.65
2023-04-10T07:29:51.361Z,4.78
2023-04-10T07:32:19.457Z,6.00
2023-04-10T07:34:47.622Z,5.72
2023-04-10T07:37:15.934Z,5.55
2023-04-10T07:39:45.821Z,4.28
2023-04-10T07:42:14.142Z,6.80
2023-04-10T07:44:42.408Z,3.70
2023-04-10T07:47:10.601Z,4.00
2023-04-10T07:49:38.796Z,5.72
2023-04-10T07:52:06.720Z,6.07
2023-04-10T07:54:35.189Z,4.57
2023-04-10T07:57:04.990Z,3.60
2023-04-10T07:59:34.349Z,4.05
2023-04-10T08:02:02.499Z,4.85
2023-04-10T08:04:31.186Z,3.47
2023-04-10T08:07:01.083Z,5.85
2023-04-10T08:09:29.496Z,3.67
2023-04-10T08:11:58.367Z,4.10
2023-04-10T08:14:28.523Z,3.75
2023-04-10T08:16:56.801Z,4.32
2023-04-10T08:19:25.899Z,4.00
2023-04-10T08:21:54.669Z,3.42
2023-04-10T08:24:23.535Z,3.83
2023-04-10T08:26:51.573Z,3.70
2023-04-10T08:29:25.687Z,3.58
2023-04-10T08:32:00.662Z,4.82
2023-04-10T08:34:28.728Z,4.32
2023-04-10T08:36:56.643Z,3.75
2023-04-10T08:39:24.545Z,2.90
2023-04-10T08:41:55.923Z,4.43
2023-04-10T08:44:25.876Z,4.40
2023-04-10T08:46:59.584Z,4.20
2023-04-10T08:49:44.851Z,2.55
2023-04-10T08:52:22.608Z,5.40
2023-04-10T08:54:58.606Z,4.88
2023-04-10T08:57:32.217Z,4.55
2023-04-10T09:00:04.296Z,4.10
2023-04-10T09:02:42.831Z,3.63
2023-04-10T09:05:13.357Z,3.45
2023-04-10T09:07:42.465Z,6.72
2023-04-10T09:10:11.251Z,3.70
2023-04-10T09:12:48.648Z,4.60
2023-04-10T09:15:18.621Z,3.95
2023-04-10T09:18:02.142Z,4.95
2023-04-10T09:20:34.000Z,4.03
2023-04-10T09:23:02.404Z,4.93
2023-04-10T09:25:35.289Z,5.28
2023-04-10T09:28:05.046Z,3.60
2023-04-10T09:30:39.241Z,5.22
2023-04-10T09:33:25.089Z,5.15
2023-04-10T09:35:53.029Z,5.15
2023-04-10T09:38:25.709Z,3.78
2023-04-10T09:41:07.130Z,4.30
2023-04-10T09:43:35.457Z,3.30
2023-04-10T09:46:09.475Z,3.50
2023-04-10T09:48:56.067Z,3.10
2023-04-10T09:51:30.716Z,3.65
2023-04-10T09:54:02.054Z,4.97
2023-04-10T09:56:32.764Z,5.13
2023-04-10T09:59:04.715Z,4.78
2023-04-10T10:01:36.063Z,3.88
2023-04-10T10:04:06.428Z,5.00
2023-04-10T10:06:36.640Z,4.35
2023-04-10T10:09:05.896Z,4.72
2023-04-10T10:11:35.334Z,4.30
2023-04-10T10:14:07.112Z,3.55
2023-04-10T10:16:42.815Z,4.60
2023-04-10T10:19:21.487Z,2.90
2023-04-10T10:21:53.736Z,3.30
2023-04-10T10:24:22.224Z,2.85
2023-04-10T10:26:55.601Z,3.67
2023-04-10T10:29:29.766Z,2.70
2023-04-10T10:32:02.943Z,3.92
2023-04-10T10:34:34.973Z,3.90
2023-04-10T10:37:05.827Z,4.43
2023-04-10T10:39:46.494Z,4.68
2023-04-10T10:42:23.974Z,3.47
2023-04-10T10:44:59.650Z,2.65
2023-04-10T10:47:31.117Z,3.30
2023-04-10T10:50:02.293Z,2.90
2023-04-10T10:52:44.988Z,3.15
2023-04-10T10:55:34.957Z,3.70
2023-04-10T10:58:05.228Z,3.35
2023-04-10T11:01:10.946Z,4.28
2023-04-10T11:03:41.648Z,3.95
2023-04-10T11:06:14.204Z,3.60
2023-04-10T11:08:46.357Z,3.75
2023-04-10T11:11:16.946Z,3.40
2023-04-10T11:14:18.131Z,3.72
2023-04-10T11:16:50.219Z,2.85
2023-04-10T11:19:22.777Z,3.20
2023-04-10T11:22:07.611Z,2.83
2023-04-10T11:24:54.878Z,4.35
2023-04-10T11:27:56.174Z,4.45
2023-04-10T11:30:32.615Z,3.08
2023-04-10T11:33:02.213Z,2.75
2023-04-10T11:35:32.485Z,4.22
2023-04-10T11:38:24.123Z,4.90
2023-04-10T11:41:04.546Z,3.33
2023-04-10T11:43:36.129Z,3.38
2023-04-10T11:46:09.514Z,3.95
2023-04-10T11:49:04.061Z,3.53
2023-04-10T11:51:32.666Z,4.90
2023-04-10T11:54:09.776Z,3.65
2023-04-10T11:56:38.965Z,5.03
2023-04-10T11:59:10.711Z,3.00
2023-04-10T12:01:42.107Z,2.30
2023-04-10T12:04:17.588Z,3.50
2023-04-10T12:06:46.908Z,2.80
2023-04-10T12:09:17.530Z,3.47
2023-04-10T12:11:53.116Z,2.92
2023-04-10T12:14:21.978Z,2.05
2023-04-10T12:16:50.626Z,3.38
2023-04-10T12:19:19.408Z,3.60
2023-04-10T12:21:47.935Z,3.30
2023-04-10T12:24:44.566Z,3.33
2023-04-10T12:27:19.058Z,2.78
2023-04-10T12:29:50.476Z,3.28
2023-04-10T12:32:19.081Z,4.05
2023-04-10T12:34:53.464Z,3.42
2023-04-10T12:37:27.753Z,3.55
2023-04-10T12:40:08.644Z,3.33
2023-04-10T12:42:42.669Z,3.72
2023-04-10T12:45:14.259Z,4.80
2023-04-10T12:47:47.552Z,4.65
2023-04-10T12:50:16.577Z,5.15
2023-04-10T12:52:46.912Z,4.72
2023-04-10T12:55:17.976Z,3.15
2023-04-10T12:57:51.658Z,3.78
2023-04-10T13:00:20.678Z,3.38
2023-04-10T13:02:49.865Z,3.40
2023-04-10T13:05:18.017Z,4.00
2023-04-10T13:07:46.163Z,3.70
2023-04-10T13:10:14.311Z,4.32
2023-04-10T13:12:44.691Z,3.40
2023-04-10T13:15:12.717Z,3.05
2023-04-10T13:17:41.542Z,3.28
2023-04-10T13:20:11.232Z,2.63
2023-04-10T13:22:39.459Z,3.15
2023-04-10T13:25:07.984Z,3.38
2023-04-10T13:27:36.437Z,3.47
2023-04-10T13:30:06.714Z,3.38
2023-04-10T13:32:34.752Z,3.83
2023-04-10T13:35:02.958Z,4.47
2023-04-10T13:37:33.760Z,3.38
2023-04-10T13:40:02.137Z,3.58
2023-04-10T13:42:32.863Z,3.90
2023-04-10T13:45:01.399Z,3.60
2023-04-10T13:47:31.558Z,4.43
2023-04-10T13:49:59.509Z,2.58
2023-04-10T13:52:29.525Z,3.05
2023-04-10T13:54:59.796Z,3.53
2023-04-10T13:57:27.720Z,4.78
2023-04-10T13:59:55.689Z,2.35
2023-04-10T14:02:23.710Z,4.57
2023-04-10T14:04:55.925Z,5.20
2023-04-10T14:07:23.949Z,3.90
2023-04-10T14:09:53.820Z,2.95
2023-04-10T14:12:23.100Z,3.70
2023-04-10T14:14:51.085Z,3.88
2023-04-10T14:17:19.053Z,3.60
2023-04-10T14:19:48.811Z,2.97
2023-04-10T14:22:20.514Z,2.95
2023-04-10T14:24:48.988Z,3.53
2023-04-10T14:27:18.279Z,3.40
2023-04-10T14:29:54.215Z,2.78
2023-04-10T14:32:23.014Z,3.83
2023-04-10T14:34:51.076Z,2.75
2023-04-10T14:37:20.386Z,3.58
2023-04-10T14:39:48.314Z,3.90
2023-04-10T14:42:16.732Z,2.67
2023-04-10T14:44:44.931Z,3.38
2023-04-10T14:47:12.877Z,3.28
2023-04-10T14:49:41.622Z,3.85
2023-04-10T14:52:09.613Z,3.67
2023-04-10T14:54:39.175Z,2.65
2023-04-10T14:57:07.409Z,2.97
2023-04-10T14:59:35.604Z,3.45
2023-04-10T15:02:03.544Z,4.05
2023-04-10T15:04:31.694Z,3.78
2023-04-10T15:07:01.794Z,3.33
2023-04-10T15:09:29.700Z,3.58
2023-04-10T15:11:58.939Z,3.17
2023-04-10T15:14:26.969Z,3.35
2023-04-10T15:16:54.915Z,3.00
2023-04-10T15:19:22.831Z,4.05
2023-04-10T15:21:50.880Z,3.33
2023-04-10T15:24:18.768Z,3.63
2023-04-10T15:26:47.134Z,2.90
2023-04-10T15:29:16.663Z,4.95
2023-04-10T15:31:44.828Z,3.30
2023-04-10T15:34:12.727Z,3.88
2023-04-10T15:36:40.713Z,3.85
2023-04-10T15:39:08.762Z,5.53
2023-04-10T15:41:36.804Z,3.05
2023-04-10T15:44:06.074Z,4.22
2023-04-10T15:46:36.158Z,5.20
2023-04-10T15:49:04.395Z,5.20
2023-04-10T15:51:32.647Z,6.63
2023-04-10T15:54:03.102Z,6.97
2023-04-10T15:56:31.216Z,6.18
2023-04-10T15:58:59.126Z,6.18
2023-04-10T16:01:27.567Z,5.95
2023-04-10T16:03:57.222Z,5.32
2023-04-10T16:06:27.769Z,5.50
2023-04-10T16:08:56.010Z,5.65
2023-04-10T16:11:24.066Z,4.88
2023-04-10T16:13:52.149Z,6.45
2023-04-10T16:16:20.254Z,7.32
2023-04-10T16:18:48.460Z,5.75
2023-04-10T16:21:17.968Z,8.93
2023-04-10T16:23:46.051Z,6.13
2023-04-10T16:26:14.078Z,9.27
2023-04-10T16:28:43.469Z,7.50
2023-04-10T16:31:11.686Z,6.07
2023-04-10T16:33:39.803Z,7.38
2023-04-10T16:36:09.095Z,7.53
2023-04-10T16:38:38.397Z,6.72
2023-04-10T16:41:07.108Z,6.32
2023-04-10T16:43:35.756Z,6.40
2023-04-10T16:46:03.947Z,6.72
2023-04-10T16:48:33.074Z,7.32
2023-04-10T16:51:05.960Z,6.65
2023-04-10T16:53:36.024Z,7.88
2023-04-10T16:56:05.684Z,6.47
2023-04-10T16:58:34.492Z,6.47
2023-04-10T17:01:13.925Z,7.55
2023-04-10T17:03:41.880Z,8.13
2023-04-10T17:06:09.778Z,6.30
2023-04-10T17:08:37.700Z,7.85
2023-04-10T17:11:07.238Z,9.35
2023-04-10T17:13:36.918Z,8.88
2023-04-10T17:16:05.224Z,7.25
2023-04-10T17:18:34.237Z,7.40
2023-04-10T17:21:02.255Z,7.38
2023-04-10T17:23:30.926Z,7.57
2023-04-10T17:25:59.103Z,8.38
2023-04-10T17:28:28.407Z,9.27
2023-04-10T17:30:56.379Z,7.05
2023-04-10T17:33:24.598Z,7.75
2023-04-10T17:35:57.953Z,5.82
2023-04-10T17:38:25.947Z,7.55
2023-04-10T17:40:53.884Z,6.57
2023-04-10T17:43:22.081Z,6.45
2023-04-10T17:45:51.295Z,5.40
2023-04-10T17:48:19.455Z,6.88
2023-04-10T17:50:48.109Z,5.95
2023-04-10T17:53:16.083Z,5.03
2023-04-10T17:55:43.928Z,8.43
2023-04-10T17:58:11.831Z,6.38
2023-04-10T18:00:41.998Z,5.20
2023-04-10T18:03:12.154Z,7.38
2023-04-10T18:05:40.246Z,6.78
2023-04-10T18:08:08.720Z,5.50
2023-04-10T18:10:37.264Z,8.02
2023-04-10T18:13:05.860Z,8.38
2023-04-10T18:15:33.893Z,31.13
2023-04-10T18:18:01.861Z,23.42
2023-04-10T18:20:31.327Z,17.42
2023-04-10T18:22:59.498Z,14.77
2023-04-10T18:25:27.909Z,14.15
2023-04-10T18:30:35.067Z,12.38
2023-04-10T18:33:07.864Z,11.18
2023-04-10T18:35:39.548Z,10.88
2023-04-10T18:38:07.928Z,8.55
2023-04-10T18:40:39.173Z,15.30
2023-04-10T18:43:07.018Z,12.93
2023-04-10T18:45:37.007Z,13.50
2023-04-10T18:48:05.276Z,11.65
2023-04-10T18:50:37.883Z,8.90
2023-04-10T18:53:07.227Z,10.73
2023-04-10T18:55:35.776Z,9.43
2023-04-10T18:58:03.935Z,9.30
2023-04-10T19:00:34.010Z,11.38
2023-04-10T19:03:02.321Z,8.65
2023-04-10T19:05:34.872Z,10.20
2023-04-10T19:08:04.799Z,8.73
2023-04-10T19:10:37.527Z,9.82
2023-04-10T19:13:06.020Z,11.23
2023-04-10T19:15:34.009Z,10.20
2023-04-10T19:18:07.881Z,9.35
2023-04-10T19:20:50.970Z,10.43
2023-04-10T19:23:22.925Z,7.80
2023-04-10T19:25:54.854Z,8.30
2023-04-10T19:28:24.228Z,7.95
2023-04-10T19:30:54.931Z,8.00
2023-04-10T19:33:22.990Z,10.35
2023-04-10T19:35:50.968Z,7.65
2023-04-10T19:38:19.339Z,7.00
2023-04-10T19:40:47.419Z,9.10
2023-04-10T19:43:16.807Z,8.32
2023-04-10T19:45:47.172Z,7.82
2023-04-10T19:48:15.876Z,8.27
2023-04-10T19:50:46.343Z,7.10
2023-04-10T19:53:15.553Z,7.13
2023-04-10T19:55:45.320Z,6.47
2023-04-10T19:58:29.934Z,8.63
2023-04-10T20:01:06.626Z,8.48
2023-04-10T20:03:35.758Z,7.10
2023-04-10T20:06:07.547Z,8.65
2023-04-10T20:08:35.611Z,6.72
2023-04-10T20:11:06.885Z,7.00
2023-04-10T20:13:35.490Z,8.98
2023-04-10T20:16:05.148Z,7.88
2023-04-10T20:18:36.670Z,6.93
2023-04-10T20:21:07.481Z,5.50
2023-04-10T20:23:35.423Z,9.65
2023-04-10T20:26:03.432Z,7.95
2023-04-10T20:28:31.605Z,5.55
2023-04-10T20:31:01.488Z,6.90
2023-04-10T20:33:33.876Z,8.75
2023-04-10T20:36:01.957Z,6.47
2023-04-10T20:38:32.996Z,5.53
2023-04-10T20:41:01.966Z,6.90
2023-04-10T20:43:29.954Z,7.80
2023-04-10T20:45:57.917Z,5.38
2023-04-10T20:48:26.274Z,8.25
2023-04-10T20:50:55.780Z,7.85
2023-04-10T20:53:28.897Z,11.10
2023-04-10T20:55:56.776Z,6.85
2023-04-10T20:58:24.928Z,7.18
2023-04-10T21:00:53.577Z,8.13
2023-04-10T21:03:21.972Z,6.50
2023-04-10T21:05:51.445Z,5.72
2023-04-10T21:08:23.205Z,7.50
2023-04-10T21:10:51.362Z,7.47
2023-04-10T21:13:22.273Z,25.65
2023-04-10T21:15:52.920Z,158.93
2023-04-10T21:18:26.702Z,212.02
2023-04-10T21:20:55.269Z,288.85
2023-04-10T21:23:24.745Z,252.55
2023-04-10T21:25:56.357Z,221.52
2023-04-10T21:28:24.263Z,219.00
2023-04-10T21:30:52.397Z,222.23
2023-04-10T21:33:20.503Z,200.60
2023-04-10T21:35:49.763Z,258.90
2023-04-10T21:38:17.966Z,203.35
2023-04-10T21:40:53.716Z,185.63
2023-04-10T21:43:25.107Z,189.02
2023-04-10T21:45:53.089Z,181.93
2023-04-10T21:48:22.325Z,178.32
2023-04-10T21:50:51.202Z,169.93
2023-04-10T21:53:24.331Z,178.10
2023-04-10T21:55:53.791Z,167.70
2023-04-10T21:58:21.787Z,185.25
2023-04-10T22:00:51.597Z,149.52
2023-04-10T22:03:22.461Z,155.98
2023-04-10T22:05:50.911Z,160.07
2023-04-10T22:08:20.070Z,156.40
2023-04-10T22:10:48.275Z,133.18
2023-04-10T22:13:29.776Z,149.63
2023-04-10T22:15:59.064Z,145.23
2023-04-10T22:18:26.992Z,133.70
2023-04-10T22:20:55.046Z,130.45
2023-04-10T22:23:23.909Z,124.97
2023-04-10T22:25:52.279Z,127.70
2023-04-10T22:28:21.655Z,124.45
2023-04-10T22:30:49.821Z,115.60
2023-04-10T22:33:17.754Z,101.90
2023-04-10T22:35:47.141Z,113.55
2023-04-10T22:38:15.017Z,131.55
2023-04-10T22:40:42.893Z,105.45
2023-04-10T22:43:10.919Z,93.25
2023-04-10T22:45:41.428Z,93.95
2023-04-10T22:48:09.490Z,99.97
2023-04-10T22:50:37.606Z,91.50
2023-04-10T22:53:05.635Z,89.28
2023-04-10T22:55:33.508Z,97.60
2023-04-10T22:58:01.428Z,97.70
2023-04-10T23:00:29.944Z,94.65
2023-04-10T23:02:59.547Z,94.47
2023-04-10T23:05:28.812Z,84.43
2023-04-10T23:07:57.234Z,93.45
2023-04-10T23:10:25.436Z,89.78
2023-04-10T23:12:53.503Z,80.00
2023-04-10T23:15:21.523Z,83.55
2023-04-10T23:17:49.531Z,68.75
2023-04-10T23:20:19.189Z,79.15
2023-04-10T23:22:47.250Z,77.68
2023-04-10T23:25:16.103Z,82.43
2023-04-10T23:27:44.370Z,73.78
2023-04-10T23:30:12.756Z,72.95
2023-04-10T23:32:41.258Z,74.07
2023-04-10T23:35:10.074Z,66.40
2023-04-10T23:37:41.984Z,74.15
2023-04-10T23:40:11.575Z,68.72
2023-04-10T23:42:41.840Z,62.10
2023-04-10T23:45:10.869Z,64.53
2023-04-10T23:47:38.877Z,65.13
2023-04-10T23:50:09.583Z,68.15
2023-04-10T23:52:41.662Z,53.20
2023-04-10T23:55:14.622Z,66.72
2023-04-10T23:57:42.577Z,58.95
